Time;durP1;ratioP1;P1;durP2;ratioP2;P2;SDS_P1;SDS_P2;PMS_P1;PMS_P2;Temp;Humidity;BMP_temperature;BMP_pressure;BME280_temperature;BME280_humidity;BME280_pressure;Samples;Min_cycle;Max_cycle;Signal;HPM_P1;HPM_P2
2022/12/23 00:00:13;;;;;;;16.73;6.43;;;;;;;7.94;100.00;99556.03;687237;28;1049;-65
2022/12/23 00:00:34;;;;;;;17.17;6.53;;;;;;;7.95;100.00;99555.16;685934;28;1450;-66
2022/12/23 00:00:59;;;;;;;18.83;6.67;;;;;;;7.94;100.00;99559.47;684840;28;1545;-66
2022/12/23 00:01:20;;;;;;;21.00;6.72;;;;;;;7.95;100.00;99560.34;685183;28;1638;-65
2022/12/23 00:01:40;;;;;;;17.83;6.50;;;;;;;7.95;100.00;99557.75;684896;28;1279;-66
2022/12/23 00:02:00;;;;;;;15.33;6.30;;;;;;;7.94;100.00;99553.41;684873;28;1139;-66
2022/12/23 00:02:21;;;;;;;16.73;6.60;;;;;;;7.95;100.00;99555.16;684337;28;4421;-66
2022/12/23 00:02:41;;;;;;;16.63;6.40;;;;;;;7.95;100.00;99557.75;687255;28;1068;-66
2022/12/23 00:03:02;;;;;;;16.15;6.53;;;;;;;7.96;100.00;99562.06;687734;28;1279;-66
2022/12/23 00:03:23;;;;;;;14.40;6.13;;;;;;;7.96;100.00;99552.53;688073;28;1490;-66
2022/12/23 00:03:44;;;;;;;13.38;6.07;;;;;;;7.96;100.00;99562.94;687572;28;1223;-66
2022/12/23 00:04:04;;;;;;;15.23;6.20;;;;;;;7.96;100.00;99559.44;687685;28;1298;-66
2022/12/23 00:04:25;;;;;;;17.50;6.20;;;;;;;7.96;100.00;99557.72;687113;28;1275;-66
2022/12/23 00:04:45;;;;;;;14.60;6.25;;;;;;;7.96;100.00;99559.44;688148;28;1456;-66
2022/12/23 00:05:06;;;;;;;13.53;6.37;;;;;;;7.96;100.00;99562.06;686333;28;2235;-66
2022/12/23 00:05:26;;;;;;;22.35;6.65;;;;;;;7.95;100.00;99558.59;685308;28;4370;-66
2022/12/23 00:05:47;;;;;;;20.73;6.57;;;;;;;7.95;100.00;99565.56;687956;28;1263;-66
2022/12/23 00:06:12;;;;;;;20.67;6.13;;;;;;;7.95;100.00;99562.97;688594;28;1225;-66
2022/12/23 00:06:33;;;;;;;17.10;6.40;;;;;;;7.94;100.00;99564.69;687020;28;1393;-66
2022/12/23 00:06:53;;;;;;;14.30;6.15;;;;;;;7.96;100.00;99564.66;686230;28;1674;-66
2022/12/23 00:07:13;;;;;;;16.43;6.40;;;;;;;7.95;100.00;99561.22;687880;28;1903;-65
2022/12/23 00:07:34;;;;;;;17.27;6.20;;;;;;;7.96;100.00;99556.84;687475;28;1360;-65
2022/12/23 00:07:54;;;;;;;14.60;5.83;;;;;;;7.95;100.00;99563.81;687087;28;1266;-66
2022/12/23 00:08:15;;;;;;;17.40;6.43;;;;;;;7.94;100.00;99558.63;687637;28;1517;-65
2022/12/23 00:08:36;;;;;;;17.38;6.45;;;;;;;7.93;100.00;99562.09;688683;28;4388;-66
2022/12/23 00:08:59;;;;;;;14.73;6.17;;;;;;;7.92;100.00;99563.84;686806;28;1578;-66
2022/12/23 00:09:19;;;;;;;12.23;6.07;;;;;;;7.92;100.00;99565.56;688017;28;1549;-66
2022/12/23 00:09:39;;;;;;;13.45;6.13;;;;;;;7.94;100.00;99569.03;688678;28;1259;-66
2022/12/23 00:10:00;;;;;;;13.03;5.90;;;;;;;7.95;100.00;99565.56;687541;28;1025;-66
2022/12/23 00:10:20;;;;;;;14.40;6.10;;;;;;;7.95;100.00;99568.16;687007;28;1417;-66
2022/12/23 00:10:41;;;;;;;13.10;5.80;;;;;;;7.94;100.00;99566.44;688297;28;1194;-67
2022/12/23 00:11:09;;;;;;;13.98;6.13;;;;;;;7.95;100.00;99563.81;687637;28;1038;-66
2022/12/23 00:11:30;;;;;;;13.90;6.47;;;;;;;7.97;100.00;99569.00;687301;28;4471;-66
2022/12/23 00:15:10;;;;;;;15.63;6.45;;;;;;;7.94;100.00;99567.28;685980;28;1237;-66
2022/12/23 00:15:30;;;;;;;18.58;7.63;;;;;;;7.95;100.00;99573.38;686184;28;1510;-66
2022/12/23 00:15:58;;;;;;;16.40;6.93;;;;;;;7.96;100.00;99568.16;688249;28;1381;-66
2022/12/23 00:16:19;;;;;;;13.25;6.32;;;;;;;7.96;100.00;99567.25;687123;28;1496;-68
2022/12/23 00:16:39;;;;;;;14.45;6.15;;;;;;;7.95;100.00;99570.75;687900;28;1346;-66
2022/12/23 00:17:00;;;;;;;13.50;6.47;;;;;;;7.94;100.00;99567.28;687655;28;1298;-67
2022/12/23 00:17:20;;;;;;;15.33;6.60;;;;;;;7.95;100.00;99573.38;688202;28;1298;-67
2022/12/23 00:17:43;;;;;;;20.90;7.57;;;;;;;7.93;100.00;99562.09;687778;28;4495;-66
2022/12/23 00:18:03;;;;;;;22.95;9.60;;;;;;;7.95;100.00;99566.41;687026;28;1263;-66
2022/12/23 00:18:23;;;;;;;20.47;8.53;;;;;;;7.99;100.00;99564.66;687984;28;1265;-66
2022/12/23 00:18:44;;;;;;;17.83;7.43;;;;;;;8.05;100.00;99563.72;688680;28;1453;-66
2022/12/23 00:19:04;;;;;;;18.10;7.63;;;;;;;8.04;100.00;99570.63;686724;28;1357;-66
2022/12/23 00:19:25;;;;;;;18.60;7.67;;;;;;;8.03;100.00;99566.34;687237;28;1270;-66
2022/12/23 00:19:45;;;;;;;16.77;7.32;;;;;;;8.02;100.00;99573.25;684402;28;1661;-66
2022/12/23 00:20:07;;;;;;;17.07;7.27;;;;;;;7.98;100.00;99565.53;684472;28;1037;-66
2022/12/23 00:20:27;;;;;;;20.33;8.30;;;;;;;7.99;100.00;99568.09;684713;28;4551;-66
2022/12/23 00:20:48;;;;;;;19.17;8.37;;;;;;;7.99;100.00;99564.66;685254;28;1435;-66
2022/12/23 00:21:14;;;;;;;23.13;8.90;;;;;;;7.97;100.00;99564.63;687155;28;1108;-66
2022/12/23 00:21:34;;;;;;;20.85;9.45;;;;;;;7.97;100.00;99567.25;688369;28;1283;-66
2022/12/23 00:21:55;;;;;;;23.60;9.20;;;;;;;7.97;100.00;99563.78;688794;28;848;-66
2022/12/23 00:22:15;;;;;;;21.57;8.90;;;;;;;7.95;100.00;99569.00;687264;28;1429;-66
2022/12/23 00:23:14;;;;;;;24.67;11.18;;;;;;;7.95;100.00;99563.81;687039;28;1112;-66
2022/12/23 00:23:37;;;;;;;23.13;10.00;;;;;;;7.96;100.00;99568.16;686682;28;4464;-66
2022/12/23 00:23:57;;;;;;;17.13;8.27;;;;;;;8.00;100.00;99563.75;687557;28;1374;-66
2022/12/23 00:24:18;;;;;;;17.97;8.33;;;;;;;7.98;100.00;99565.53;688535;28;1652;-67
2022/12/23 00:24:38;;;;;;;21.60;9.27;;;;;;;7.98;100.00;99562.91;688899;28;1465;-66
2022/12/23 00:24:58;;;;;;;21.53;8.63;;;;;;;8.06;100.00;99562.81;687804;28;1633;-65
2022/12/23 00:25:19;;;;;;;17.33;7.57;;;;;;;8.09;100.00;99568.84;686248;28;1219;-66
2022/12/23 00:25:43;;;;;;;13.98;6.80;;;;;;;8.12;100.00;99566.19;688299;28;1203;-66
2022/12/23 00:26:04;;;;;;;15.48;6.40;;;;;;;8.11;100.00;99558.41;687410;28;1092;-66
2022/12/23 00:26:26;;;;;;;17.33;6.55;;;;;;;8.11;100.00;99564.50;686952;28;4332;-66
2022/12/23 00:26:46;;;;;;;16.48;6.28;;;;;;;8.10;100.00;99562.78;688590;28;875;-66
2022/12/23 00:27:06;;;;;;;16.60;6.50;;;;;;;8.09;100.00;99563.66;687188;28;1264;-66
2022/12/23 00:27:27;;;;;;;15.50;6.70;;;;;;;8.10;100.00;99565.38;687212;28;1910;-66
2022/12/23 00:28:00;;;;;;;14.45;6.20;;;;;;;8.08;100.00;99559.31;687178;28;1496;-67
2022/12/23 00:28:23;;;;;;;14.60;6.47;;;;;;;8.05;100.00;99563.72;688557;28;1387;-66
2022/12/23 00:28:43;;;;;;;14.68;6.85;;;;;;;8.01;100.00;99562.88;687705;28;1558;-66
2022/12/23 00:29:04;;;;;;;14.77;7.07;;;;;;;8.00;100.00;99564.63;686896;28;979;-66
2022/12/23 00:29:24;;;;;;;16.48;7.15;;;;;;;7.99;100.00;99556.84;687100;28;4537;-66
2022/12/23 00:29:45;;;;;;;14.07;6.37;;;;;;;7.99;100.00;99565.50;688652;28;1053;-67
2022/12/23 00:30:09;;;;;;;14.77;6.30;;;;;;;7.97;100.00;99564.63;687170;28;1467;-66
2022/12/23 00:30:29;;;;;;;16.88;6.65;;;;;;;7.97;100.00;99569.84;688441;28;1402;-66
2022/12/23 00:31:00;;;;;;;17.90;6.70;;;;;;;7.95;100.00;99566.41;689011;28;1426;-66
2022/12/23 00:31:20;;;;;;;20.52;6.97;;;;;;;7.96;100.00;99569.88;687973;28;1204;-66
2022/12/23 00:31:41;;;;;;;18.60;6.87;;;;;;;7.96;100.00;99569.88;687950;28;1498;-66
2022/12/23 00:32:01;;;;;;;13.50;6.23;;;;;;;7.97;100.00;99569.00;688354;28;1131;-66
2022/12/23 00:32:21;;;;;;;12.97;6.07;;;;;;;7.97;100.00;99569.00;687049;28;4386;-66
2022/12/23 00:32:43;;;;;;;11.57;5.90;;;;;;;7.97;100.00;99567.25;687914;28;1541;-66
2022/12/23 00:33:04;;;;;;;11.27;5.70;;;;;;;7.97;100.00;99564.63;687713;28;1183;-66
2022/12/23 00:33:26;;;;;;;12.02;5.72;;;;;;;8.04;100.00;99570.63;688491;28;1596;-66
2022/12/23 00:33:49;;;;;;;14.30;5.90;;;;;;;8.02;100.00;99568.06;687958;28;1317;-66
2022/12/23 00:34:11;;;;;;;15.88;5.85;;;;;;;8.03;100.00;99568.94;685737;28;1060;-66
2022/12/23 00:34:31;;;;;;;15.45;5.88;;;;;;;8.01;100.00;99565.47;687526;28;1500;-66
2022/12/23 00:34:51;;;;;;;14.70;5.85;;;;;;;8.00;100.00;99576.75;687858;28;1442;-66
2022/12/23 00:35:12;;;;;;;17.90;6.00;;;;;;;8.00;100.00;99568.94;686495;28;1536;-66
2022/12/23 00:35:32;;;;;;;15.97;5.90;;;;;;;7.99;100.00;99567.25;686281;28;4355;-66
2022/12/23 00:35:53;;;;;;;14.43;6.10;;;;;;;8.02;100.00;99569.81;686717;28;1437;-66
2022/12/23 00:36:18;;;;;;;13.33;5.83;;;;;;;8.06;100.00;99568.91;687369;28;1231;-66
2022/12/23 00:36:39;;;;;;;13.32;5.78;;;;;;;8.05;100.00;99563.72;687290;28;1468;-66
2022/12/23 00:36:59;;;;;;;13.52;5.85;;;;;;;8.06;100.00;99568.91;688068;28;1527;-66
2022/12/23 00:37:20;;;;;;;14.67;6.03;;;;;;;8.04;100.00;99570.63;688060;28;806;-66
2022/12/23 00:37:40;;;;;;;17.40;6.45;;;;;;;8.03;100.00;99568.94;686055;28;1411;-66
2022/12/23 00:38:00;;;;;;;17.07;7.00;;;;;;;8.02;100.00;99562.84;686806;28;1071;-66
2022/12/23 00:42:53;;;;;;;12.65;5.90;;;;;;;8.08;100.00;99569.72;687895;28;1202;-67
2022/12/23 00:43:13;;;;;;;12.70;5.60;;;;;;;8.09;100.00;99575.81;688166;28;1205;-66
2022/12/23 00:43:34;;;;;;;13.03;5.87;;;;;;;8.12;100.00;99574.00;687499;28;5344;-66
2022/12/23 00:43:54;;;;;;;13.90;6.28;;;;;;;8.11;100.00;99577.53;687747;28;1358;-66
2022/12/23 00:44:15;;;;;;;12.27;5.77;;;;;;;8.11;100.00;99569.72;684864;28;1388;-66
2022/12/23 00:44:35;;;;;;;12.52;5.80;;;;;;;8.10;100.00;99574.91;684122;28;5513;-66
2022/12/23 00:45:14;;;;;;;14.10;6.07;;;;;;;8.09;100.00;99576.66;685177;28;1254;-66
2022/12/23 00:45:35;;;;;;;13.48;6.70;;;;;;;8.07;100.00;99572.34;688146;28;1231;-66
2022/12/23 00:45:55;;;;;;;24.05;9.73;;;;;;;8.05;100.00;99569.75;686157;28;1297;-66
2022/12/23 00:46:15;;;;;;;25.30;10.20;;;;;;;8.02;100.00;99575.00;687570;28;1468;-66
2022/12/23 00:46:36;;;;;;;24.30;10.18;;;;;;;8.00;100.00;99574.16;688454;28;1227;-66
2022/12/23 00:46:57;;;;;;;24.53;10.13;;;;;;;7.99;100.00;99572.47;687375;28;1242;-66
2022/12/23 00:49:56;;;;;;;23.02;9.02;;;;;;;7.95;100.00;99576.81;687410;28;1381;-66
2022/12/23 00:50:16;;;;;;;19.67;8.57;;;;;;;7.95;100.00;99573.38;688435;28;1270;-66
2022/12/23 00:50:38;;;;;;;20.03;8.63;;;;;;;7.94;100.00;99569.03;688119;28;4683;-66
2022/12/23 00:50:58;;;;;;;21.95;8.50;;;;;;;7.92;100.00;99571.66;688296;28;1335;-66
2022/12/23 00:51:19;;;;;;;25.27;8.40;;;;;;;7.93;100.00;99568.16;689085;28;1419;-67
2022/12/23 00:51:39;;;;;;;23.67;8.32;;;;;;;7.94;100.00;99576.84;689648;28;1559;-66
2022/12/23 00:52:00;;;;;;;18.43;8.00;;;;;;;7.93;100.00;99577.72;687755;28;1549;-67
2022/12/23 00:52:20;;;;;;;17.85;8.20;;;;;;;7.93;100.00;99580.31;688104;28;1401;-66
2022/12/23 00:52:40;;;;;;;17.70;8.23;;;;;;;7.92;100.00;99576.88;688097;28;1112;-66
2022/12/23 00:53:01;;;;;;;20.85;8.65;;;;;;;7.92;100.00;99571.66;686837;28;1168;-66
2022/12/23 00:53:22;;;;;;;21.33;8.33;;;;;;;7.93;100.00;99572.50;688840;28;4574;-66
2022/12/23 00:53:42;;;;;;;20.77;7.78;;;;;;;7.95;100.00;99578.56;687639;28;1544;-66
2022/12/23 00:54:03;;;;;;;16.30;7.60;;;;;;;7.94;100.00;99580.28;687307;28;1135;-66
2022/12/23 00:54:23;;;;;;;18.73;8.05;;;;;;;7.94;100.00;99577.69;688224;28;1182;-66
2022/12/23 00:54:43;;;;;;;20.45;8.52;;;;;;;7.93;100.00;99578.56;687197;28;3805;-66
2022/12/23 00:55:04;;;;;;;18.37;8.03;;;;;;;7.93;100.00;99575.13;688700;28;1182;-66
2022/12/23 00:55:25;;;;;;;20.65;7.78;;;;;;;7.92;100.00;99571.66;688931;28;899;-66
2022/12/23 00:55:46;;;;;;;25.23;7.93;;;;;;;7.92;100.00;99576.88;688388;28;1231;-66
2022/12/23 00:56:07;;;;;;;21.95;7.70;;;;;;;7.92;100.00;99583.78;687205;28;1182;-66
2022/12/23 00:56:27;;;;;;;16.43;7.63;;;;;;;7.91;100.00;99580.34;687409;28;4534;-67
2022/12/23 00:56:47;;;;;;;21.63;8.23;;;;;;;7.91;100.00;99577.72;687684;28;1338;-66
2022/12/23 00:57:08;;;;;;;23.83;8.60;;;;;;;7.91;100.00;99585.53;687880;28;1379;-66
2022/12/23 00:57:28;;;;;;;24.33;8.35;;;;;;;7.91;100.00;99580.34;687647;28;1215;-66
2022/12/23 00:57:49;;;;;;;29.87;8.40;;;;;;;7.92;100.00;99581.19;688056;28;1677;-66
2022/12/23 00:58:09;;;;;;;26.48;8.38;;;;;;;7.92;100.00;99581.19;684415;28;1405;-66
2022/12/23 00:58:30;;;;;;;24.00;8.13;;;;;;;7.91;100.00;99584.69;687225;28;1308;-66
2022/12/23 00:58:51;;;;;;;26.55;7.95;;;;;;;7.91;100.00;99590.75;689776;28;1302;-66
2022/12/23 00:59:11;;;;;;;21.77;7.83;;;;;;;7.92;100.00;99583.78;685826;28;1192;-66
2022/12/23 00:59:32;;;;;;;24.50;8.43;;;;;;;7.91;100.00;99582.09;684777;28;4500;-67
2022/12/23 00:59:53;;;;;;;19.40;8.18;;;;;;;7.91;100.00;99579.50;686415;28;1338;-66
2022/12/23 01:00:14;;;;;;;22.53;8.20;;;;;;;7.89;100.00;99592.53;687984;28;1104;-66
2022/12/23 01:05:49;;;;;;;32.00;10.25;;;;;;;7.88;100.00;99584.69;687086;28;4758;-67
2022/12/23 01:06:10;;;;;;;22.67;9.23;;;;;;;7.88;100.00;99588.19;687413;28;1133;-67
2022/12/23 01:06:30;;;;;;;22.80;8.37;;;;;;;7.88;100.00;99588.19;689472;28;896;-66
2022/12/23 01:06:51;;;;;;;23.20;7.82;;;;;;;7.87;100.00;99589.06;687058;28;1382;-67
2022/12/23 01:07:11;;;;;;;18.83;7.30;;;;;;;7.86;100.00;99587.31;687628;28;1918;-67
2022/12/23 01:07:31;;;;;;;12.82;6.93;;;;;;;7.86;100.00;99592.53;688948;28;1456;-67
2022/12/23 01:07:52;;;;;;;17.27;8.43;;;;;;;7.86;100.00;99595.13;689232;28;1412;-66
2022/12/23 01:08:12;;;;;;;21.20;9.73;;;;;;;7.87;100.00;99593.41;683995;28;1369;-67
2022/12/23 01:08:33;;;;;;;23.08;11.15;;;;;;;7.87;100.00;99596.00;684409;28;4405;-67
2022/12/23 01:08:53;;;;;;;27.00;12.93;;;;;;;7.87;100.00;99593.41;686197;28;936;-67
2022/12/23 01:09:13;;;;;;;28.05;13.65;;;;;;;7.86;100.00;99591.69;685403;28;1360;-66
2022/12/23 01:09:34;;;;;;;30.53;13.70;;;;;;;7.87;100.00;99590.81;685605;28;1370;-66
2022/12/23 01:09:54;;;;;;;32.22;13.93;;;;;;;7.87;100.00;99596.00;685207;28;1247;-67
2022/12/23 01:10:15;;;;;;;27.00;11.50;;;;;;;7.92;100.00;99586.38;690533;28;1402;-66
2022/12/23 01:10:36;;;;;;;23.00;10.05;;;;;;;8.05;100.00;99595.78;689634;28;1402;-66
2022/12/23 01:11:02;;;;;;;23.17;10.20;;;;;;;8.09;100.00;99584.47;689568;28;1402;-66
2022/12/23 01:11:22;;;;;;;23.90;9.63;;;;;;;8.10;100.00;99587.91;688612;28;4546;-66
2022/12/23 01:11:42;;;;;;;19.63;9.37;;;;;;;8.06;100.00;99588.84;688232;28;1314;-66
2022/12/23 01:12:03;;;;;;;22.23;9.95;;;;;;;8.01;100.00;99589.75;688485;28;1346;-67
2022/12/23 01:12:24;;;;;;;23.02;10.18;;;;;;;8.01;100.00;99594.09;689101;28;1269;-67
2022/12/23 01:12:44;;;;;;;23.30;10.20;;;;;;;7.97;100.00;99588.06;687632;28;1628;-66
2022/12/23 01:13:05;;;;;;;26.48;10.48;;;;;;;7.95;100.00;99591.59;687217;28;1597;-66
2022/12/23 01:13:25;;;;;;;21.57;9.53;;;;;;;7.93;100.00;99583.78;689774;28;1404;-66
2022/12/23 01:13:46;;;;;;;21.83;9.73;;;;;;;7.93;100.00;99599.38;688413;28;1305;-66
2022/12/23 01:14:08;;;;;;;20.83;10.13;;;;;;;7.92;100.00;99597.69;687388;28;1215;-66
2022/12/23 01:14:28;;;;;;;22.45;9.20;;;;;;;7.90;100.00;99591.63;687070;28;5305;-66
2022/12/23 01:14:49;;;;;;;19.83;8.73;;;;;;;7.91;100.00;99595.09;687554;28;1514;-66
2022/12/23 01:15:09;;;;;;;21.13;9.87;;;;;;;7.90;100.00;99593.38;687265;28;850;-66
2022/12/23 01:15:31;;;;;;;22.92;10.65;;;;;;;7.90;100.00;99596.81;688142;28;1344;-66
2022/12/23 01:15:51;;;;;;;22.80;11.25;;;;;;;7.91;100.00;99595.09;687895;28;1452;-66
2022/12/23 01:16:11;;;;;;;24.52;10.98;;;;;;;7.91;100.00;99595.94;686873;28;1417;-66
2022/12/23 01:16:32;;;;;;;25.17;10.43;;;;;;;7.93;100.00;99601.13;687391;28;1243;-66
2022/12/23 01:16:52;;;;;;;23.27;10.02;;;;;;;7.92;100.00;99600.28;687686;28;1690;-66
2022/12/23 01:17:14;;;;;;;26.30;11.03;;;;;;;7.92;100.00;99596.81;686879;28;1279;-66
2022/12/23 01:17:34;;;;;;;29.02;12.07;;;;;;;7.90;100.00;99598.56;686079;28;4370;-66
2022/12/23 01:17:54;;;;;;;27.77;11.70;;;;;;;7.92;100.00;99596.81;685279;28;1302;-66
2022/12/23 01:18:15;;;;;;;29.40;11.70;;;;;;;7.91;100.00;99595.94;684810;28;1419;-66
2022/12/23 01:18:36;;;;;;;28.27;11.23;;;;;;;7.92;100.00;99596.81;686397;28;1393;-66
2022/12/23 01:18:57;;;;;;;25.00;9.98;;;;;;;7.93;100.00;99601.13;688099;28;1203;-66
2022/12/23 01:19:18;;;;;;;29.10;9.65;;;;;;;7.93;100.00;99606.34;687440;28;1387;-66
2022/12/23 01:19:38;;;;;;;28.53;9.20;;;;;;;7.93;100.00;99601.13;689533;28;1400;-66
2022/12/23 01:19:59;;;;;;;26.15;9.90;;;;;;;7.92;100.00;99600.28;687686;28;1358;-66
2022/12/23 01:20:19;;;;;;;25.97;10.23;;;;;;;7.93;100.00;99603.75;688276;28;1609;-66
2022/12/23 01:20:40;;;;;;;24.33;9.30;;;;;;;7.94;100.00;99610.69;687215;28;4524;-66
2022/12/23 01:21:02;;;;;;;20.07;8.13;;;;;;;7.93;100.00;99603.75;687776;28;1570;-66
2022/12/23 01:21:23;;;;;;;18.23;8.63;;;;;;;7.91;100.00;99603.75;687434;28;1669;-66
2022/12/23 01:21:43;;;;;;;17.33;8.53;;;;;;;7.92;100.00;99607.22;687370;28;1468;-66
2022/12/23 01:22:03;;;;;;;16.70;7.93;;;;;;;7.98;100.00;99608.00;688142;28;1249;-65
2022/12/23 01:22:24;;;;;;;16.30;7.60;;;;;;;8.10;100.00;99607.03;688351;28;1191;-66
2022/12/23 01:22:44;;;;;;;18.20;7.68;;;;;;;8.10;100.00;99603.53;688069;28;1159;-66
2022/12/23 01:23:05;;;;;;;17.20;7.50;;;;;;;8.08;100.00;99598.34;688096;28;1246;-66
2022/12/23 01:23:25;;;;;;;15.45;7.35;;;;;;;8.06;100.00;99604.44;687809;28;4542;-66
2022/12/23 01:23:46;;;;;;;13.03;6.23;;;;;;;8.08;100.00;99600.97;687000;28;1494;-66
2022/12/23 01:24:07;;;;;;;13.60;5.85;;;;;;;8.12;100.00;99609.59;687321;28;1436;-67
2022/12/23 01:24:30;;;;;;;12.05;5.90;;;;;;;8.09;100.00;99604.44;688289;28;1346;-66
2022/12/23 01:24:51;;;;;;;13.98;6.68;;;;;;;8.06;100.00;99604.44;689566;28;1594;-66
2022/12/23 01:25:12;;;;;;;16.20;6.60;;;;;;;8.02;100.00;99611.44;687366;28;1494;-66
2022/12/23 01:25:32;;;;;;;15.32;6.57;;;;;;;7.99;100.00;99604.53;689292;28;1367;-66
2022/12/23 01:25:57;;;;;;;13.80;6.55;;;;;;;7.98;100.00;99605.41;689266;28;1690;-66
2022/12/23 01:26:18;;;;;;;15.15;6.60;;;;;;;7.96;100.00;99609.78;687450;28;1637;-67
2022/12/23 01:26:38;;;;;;;19.33;7.60;;;;;;;7.95;100.00;99607.19;687255;28;4513;-65
2022/12/23 01:26:59;;;;;;;16.48;7.50;;;;;;;7.99;100.00;99614.09;687826;28;1664;-66
2022/12/23 01:27:19;;;;;;;16.67;7.13;;;;;;;8.05;100.00;99605.34;687536;28;1906;-66
2022/12/23 01:27:40;;;;;;;14.23;6.40;;;;;;;8.11;100.00;99606.16;687254;28;1885;-66
2022/12/23 01:28:00;;;;;;;11.27;5.77;;;;;;;8.11;100.00;99613.06;687466;28;1607;-66
2022/12/23 01:28:20;;;;;;;11.77;5.53;;;;;;;8.16;100.00;99611.28;688465;28;1720;-66
2022/12/23 01:28:40;;;;;;;15.13;6.53;;;;;;;8.22;100.00;99607.75;688878;28;1548;-66
2022/12/23 01:29:01;;;;;;;15.67;7.57;;;;;;;8.22;100.00;99610.34;687819;28;1314;-66
2022/12/23 01:29:22;;;;;;;17.30;7.35;;;;;;;8.17;100.00;99610.41;687953;28;4651;-66
2022/12/23 01:29:42;;;;;;;21.08;7.93;;;;;;;8.14;100.00;99611.31;688395;28;1588;-66
2022/12/23 01:30:03;;;;;;;22.57;8.27;;;;;;;8.10;100.00;99614.84;688025;28;1576;-66
2022/12/23 01:30:23;;;;;;;23.85;9.57;;;;;;;8.07;100.00;99617.47;688685;28;1426;-66
2022/12/23 01:30:44;;;;;;;24.15;9.82;;;;;;;8.05;100.00;99621.81;689199;28;1282;-66
2022/12/23 01:31:08;;;;;;;23.40;10.20;;;;;;;8.02;100.00;99619.25;687823;28;1394;-66
2022/12/23 01:31:28;;;;;;;24.40;9.75;;;;;;;8.01;100.00;99617.53;687923;28;1522;-66
2022/12/23 01:31:49;;;;;;;26.25;9.98;;;;;;;7.99;100.00;99617.56;687593;28;1517;-66
2022/12/23 01:32:09;;;;;;;25.20;11.00;;;;;;;8.00;100.00;99621.00;687342;28;1370;-66
2022/12/23 01:32:30;;;;;;;22.80;10.47;;;;;;;8.01;100.00;99615.78;687798;28;4408;-66
2022/12/23 01:32:50;;;;;;;23.10;9.13;;;;;;;8.05;100.00;99624.44;688931;28;1624;-66
2022/12/23 01:33:10;;;;;;;20.77;8.40;;;;;;;8.06;100.00;99625.28;687682;28;1322;-66
2022/12/23 01:33:32;;;;;;;21.58;8.30;;;;;;;8.08;100.00;99618.31;688673;28;1291;-66
2022/12/23 01:33:53;;;;;;;21.17;7.93;;;;;;;8.09;100.00;99626.13;687765;28;1227;-66
2022/12/23 01:34:13;;;;;;;20.73;9.02;;;;;;;8.11;100.00;99618.28;686900;28;1171;-66
2022/12/23 01:34:34;;;;;;;23.13;8.95;;;;;;;8.09;100.00;99623.50;688375;28;1509;-66
2022/12/23 01:34:54;;;;;;;21.03;8.43;;;;;;;8.08;100.00;99619.19;688373;28;1325;-66
2022/12/23 01:35:14;;;;;;;25.52;9.88;;;;;;;8.07;100.00;99622.69;687476;28;1284;-66
2022/12/23 01:35:35;;;;;;;27.80;10.57;;;;;;;8.07;100.00;99617.47;687187;28;4417;-66
2022/12/23 01:36:03;;;;;;;23.67;9.40;;;;;;;8.04;100.00;99620.09;687689;28;966;-66
2022/12/23 01:36:24;;;;;;;22.60;8.60;;;;;;;8.04;100.00;99617.50;687391;28;1249;-66
2022/12/23 01:36:44;;;;;;;22.80;8.27;;;;;;;8.02;100.00;99622.72;687946;28;1378;-66
2022/12/23 01:37:05;;;;;;;19.80;8.23;;;;;;;8.01;100.00;99618.38;687081;28;1263;-66
2022/12/23 01:37:25;;;;;;;19.60;8.10;;;;;;;8.00;100.00;99626.22;685289;28;1480;-66
2022/12/23 01:37:45;;;;;;;20.07;7.67;;;;;;;7.98;100.00;99622.78;685532;28;1473;-66
2022/12/23 01:38:06;;;;;;;22.75;7.90;;;;;;;7.97;100.00;99627.09;685145;28;1155;-66
2022/12/23 01:38:26;;;;;;;22.33;7.70;;;;;;;7.95;100.00;99628.88;686488;28;4827;-66
2022/12/23 01:38:47;;;;;;;22.47;7.80;;;;;;;7.95;100.00;99622.81;688224;28;1197;-66
2022/12/23 01:39:07;;;;;;;20.50;7.50;;;;;;;7.96;100.00;99614.09;684887;28;1025;-66
2022/12/23 01:39:27;;;;;;;21.30;8.50;;;;;;;7.96;100.00;99619.31;686624;28;1522;-66
2022/12/23 01:39:48;;;;;;;18.73;7.82;;;;;;;7.96;100.00;99619.31;688960;28;1136;-66
2022/12/23 01:40:09;;;;;;;17.70;7.03;;;;;;;7.94;100.00;99623.69;688181;28;1366;-67
2022/12/23 01:40:34;;;;;;;23.15;7.03;;;;;;;7.91;100.00;99621.97;688220;28;1477;-66
2022/12/23 01:40:55;;;;;;;20.73;6.90;;;;;;;7.92;100.00;99615.03;687624;28;1462;-67
2022/12/23 01:42:53;;;;;;;18.45;7.40;;;;;;;7.89;100.00;99617.66;687389;28;1126;-66
2022/12/23 01:43:18;;;;;;;18.87;7.33;;;;;;;7.89;100.00;99617.66;688542;28;1273;-66
2022/12/23 01:43:50;;;;;;;17.83;6.47;;;;;;;7.88;100.00;99618.53;686811;28;1645;-66
2022/12/23 01:44:47;;;;;;;20.77;6.55;;;;;;;7.85;100.00;99622.06;687130;28;1316;-66
2022/12/23 01:45:27;;;;;;;16.80;6.85;;;;;;;7.83;100.00;99618.59;687462;28;5423;-66
2022/12/23 01:45:48;;;;;;;15.82;6.35;;;;;;;7.83;100.00;99624.63;690789;28;2118;-67
2022/12/23 01:46:08;;;;;;;14.33;6.20;;;;;;;7.84;100.00;99623.78;688131;28;1189;-66
2022/12/23 01:46:29;;;;;;;14.03;6.27;;;;;;;7.84;100.00;99621.16;688831;28;1069;-67
2022/12/23 01:46:50;;;;;;;17.07;6.80;;;;;;;7.86;100.00;99622.91;685969;28;1482;-66
2022/12/23 01:47:16;;;;;;;19.92;7.07;;;;;;;7.85;100.00;99616.84;684738;28;1131;-66
2022/12/23 01:47:36;;;;;;;18.83;7.07;;;;;;;7.86;100.00;99628.09;684350;28;4664;-66
2022/12/23 01:48:10;;;;;;;17.67;7.00;;;;;;;7.84;100.00;99626.38;686263;28;1308;-66
2022/12/23 01:48:30;;;;;;;18.45;6.85;;;;;;;7.86;100.00;99622.91;687632;28;1277;-68
2022/12/23 01:48:52;;;;;;;14.23;6.33;;;;;;;7.84;100.00;99628.97;688902;28;1339;-66
2022/12/23 01:49:12;;;;;;;11.95;6.18;;;;;;;7.83;100.00;99629.00;687149;28;1042;-66
2022/12/23 01:49:32;;;;;;;12.82;6.30;;;;;;;7.83;100.00;99635.06;687733;28;1263;-66
2022/12/23 01:49:59;;;;;;;14.23;6.43;;;;;;;7.83;100.00;99635.06;687751;28;1280;-66
2022/12/23 01:50:23;;;;;;;15.05;7.32;;;;;;;7.83;100.00;99639.41;687609;28;1410;-67
2022/12/23 01:50:54;;;;;;;16.60;7.70;;;;;;;7.81;100.00;99636.81;687422;28;4881;-66
2022/12/23 01:51:22;;;;;;;16.52;7.75;;;;;;;7.81;100.00;99636.81;687677;28;1171;-66
2022/12/23 01:51:42;;;;;;;23.92;8.95;;;;;;;7.80;100.00;99636.84;686214;28;1195;-66
2022/12/23 01:52:02;;;;;;;23.50;9.60;;;;;;;7.80;100.00;99636.84;688191;28;1413;-67
2022/12/23 01:52:23;;;;;;;21.10;9.90;;;;;;;7.79;100.00;99638.56;687857;28;1307;-66
2022/12/23 01:52:50;;;;;;;30.23;12.35;;;;;;;7.89;100.00;99643.69;687527;28;1499;-66
2022/12/23 01:53:12;;;;;;;29.10;10.82;;;;;;;7.89;100.00;99635.88;686571;28;1086;-66
2022/12/23 01:53:39;;;;;;;21.92;8.77;;;;;;;7.96;100.00;99635.81;688827;28;4314;-66
2022/12/23 01:54:01;;;;;;;16.30;7.18;;;;;;;7.95;100.00;99638.44;688177;28;1186;-66
2022/12/23 01:54:21;;;;;;;16.00;7.30;;;;;;;7.94;100.00;99636.69;687592;28;1324;-66
2022/12/23 01:54:43;;;;;;;16.05;7.47;;;;;;;7.89;100.00;99639.34;688085;28;1116;-66
2022/12/23 01:55:03;;;;;;;18.02;7.90;;;;;;;7.89;100.00;99643.69;687632;28;1219;-66
2022/12/23 01:55:28;;;;;;;19.58;7.60;;;;;;;7.90;100.00;99635.00;687351;28;1192;-66
2022/12/23 01:55:55;;;;;;;16.73;7.70;;;;;;;7.90;100.00;99642.81;687997;28;1376;-66
2022/12/23 01:56:22;;;;;;;15.65;6.97;;;;;;;7.86;100.00;99635.91;687747;28;1298;-66
2022/12/23 01:56:43;;;;;;;18.55;7.80;;;;;;;7.84;100.00;99636.78;687020;28;5201;-66
2022/12/23 01:57:03;;;;;;;24.92;8.55;;;;;;;7.84;100.00;99635.94;687282;28;1287;-66
2022/12/23 01:57:24;;;;;;;22.35;8.13;;;;;;;7.84;100.00;99641.13;687638;28;1293;-66
2022/12/23 01:57:46;;;;;;;19.70;7.70;;;;;;;7.84;100.00;99642.00;687397;28;1422;-66
2022/12/23 01:58:21;;;;;;;14.10;6.80;;;;;;;7.86;100.00;99634.16;684952;28;2027;-66
2022/12/23 01:58:55;;;;;;;25.35;8.90;;;;;;;7.95;100.00;99641.88;683489;28;1251;-66
2022/12/23 02:03:41;;;;;;;18.40;8.07;;;;;;;7.93;100.00;99642.78;684257;28;1287;-66
2022/12/23 02:04:04;;;;;;;13.32;6.35;;;;;;;7.88;100.00;99637.63;687312;28;1686;-66
2022/12/23 02:04:25;;;;;;;15.40;6.57;;;;;;;7.95;100.00;99641.03;686999;28;1339;-66
2022/12/23 02:04:46;;;;;;;16.05;6.75;;;;;;;7.94;100.00;99644.50;687405;28;1270;-67
2022/12/23 02:05:07;;;;;;;14.15;6.25;;;;;;;7.92;100.00;99646.25;687349;28;1304;-66
2022/12/23 02:05:27;;;;;;;13.25;6.50;;;;;;;7.90;100.00;99642.81;688280;28;4578;-66